Time;durP1;ratioP1;P1;durP2;ratioP2;P2;SDS_P1;SDS_P2;PMS_P1;PMS_P2;Temp;Humidity;BMP_temperature;BMP_pressure;BME280_temperature;BME280_humidity;BME280_pressure;Samples;Min_cycle;Max_cycle;Signal;HPM_P1;HPM_P2
2024/04/13 00:01:40;;;;;;;5.28;2.72;;;;;;;13.82;100.00;101649.63;5495965;26;20078;-73
2024/04/13 00:04:08;;;;;;;4.38;2.80;;;;;;;13.73;100.00;101645.75;5497013;26;19998;-73
2024/04/13 00:06:33;;;;;;;3.75;2.55;;;;;;;13.74;100.00;101642.69;5493018;26;19998;-73
2024/04/13 00:08:59;;;;;;;4.97;2.67;;;;;;;13.75;100.00;101649.09;5437047;26;20005;-73
2024/04/13 00:11:24;;;;;;;3.47;2.47;;;;;;;13.69;100.00;101639.94;5435883;26;20081;-73
2024/04/13 00:13:51;;;;;;;7.60;2.50;;;;;;;13.71;100.00;101642.44;5467215;26;19998;-73
2024/04/13 00:16:17;;;;;;;3.60;2.35;;;;;;;13.62;100.00;101640.25;5465824;26;20062;-73
2024/04/13 00:18:42;;;;;;;5.63;2.83;;;;;;;13.63;100.00;101635.50;5467106;26;20016;-73
2024/04/13 00:21:08;;;;;;;5.85;2.60;;;;;;;13.54;100.00;101635.28;5406997;26;20590;-73
2024/04/13 00:23:33;;;;;;;5.50;2.70;;;;;;;13.52;100.00;101634.72;5437035;26;19997;-73
2024/04/13 00:25:59;;;;;;;5.65;3.00;;;;;;;13.48;100.00;101628.03;5529616;26;20014;-74
2024/04/13 00:28:24;;;;;;;3.70;2.10;;;;;;;13.46;100.00;101630.28;5466820;26;20004;-73
2024/04/13 00:30:50;;;;;;;4.25;2.38;;;;;;;13.46;100.00;101621.91;5406488;26;20001;-73
2024/04/13 00:33:16;;;;;;;7.30;2.88;;;;;;;13.43;100.00;101621.63;5466231;26;20006;-74
2024/04/13 00:35:41;;;;;;;4.78;2.70;;;;;;;13.41;100.00;101617.19;5437015;26;19994;-73
2024/04/13 00:38:08;;;;;;;7.65;2.83;;;;;;;13.39;100.00;101624.16;5436485;26;20033;-73
2024/04/13 00:40:33;;;;;;;4.18;2.17;;;;;;;13.39;100.00;101629.75;5436869;26;20361;-74
2024/04/13 00:43:08;;;;;;;4.15;2.53;;;;;;;13.29;100.00;101625.06;5437020;26;19997;-74
2024/04/13 00:45:42;;;;;;;5.28;2.47;;;;;;;13.35;100.00;101623.91;5439200;26;20073;-73
2024/04/13 00:48:30;;;;;;;4.53;2.65;;;;;;;13.26;100.00;101619.19;5439589;26;19997;-73
2024/04/13 00:50:58;;;;;;;4.25;2.55;;;;;;;13.22;100.00;101623.66;5468659;26;20012;-73
2024/04/13 00:53:24;;;;;;;5.15;2.72;;;;;;;13.21;100.00;101622.81;5466512;26;20005;-74
2024/04/13 00:55:50;;;;;;;6.80;3.53;;;;;;;13.14;100.00;101622.28;5497093;26;20028;-73
2024/04/13 00:58:15;;;;;;;5.47;2.60;;;;;;;13.11;100.00;101620.91;5527999;25;20442;-73
2024/04/13 01:00:41;;;;;;;5.47;2.38;;;;;;;13.09;100.00;101619.50;5430199;26;20002;-74
2024/04/13 01:03:07;;;;;;;4.43;2.75;;;;;;;13.02;100.00;101617.03;5481993;26;20037;-73
2024/04/13 01:05:32;;;;;;;5.60;2.60;;;;;;;13.00;100.00;101622.03;5465851;26;20073;-73
2024/04/13 01:07:58;;;;;;;6.43;2.78;;;;;;;12.97;100.00;101620.66;5466452;26;20082;-73
2024/04/13 01:10:24;;;;;;;4.45;2.40;;;;;;;12.96;100.00;101616.22;5465960;26;20476;-73
2024/04/13 01:12:49;;;;;;;6.22;2.53;;;;;;;12.92;100.00;101605.91;5465224;26;19997;-73
2024/04/13 01:15:16;;;;;;;9.93;2.95;;;;;;;12.89;100.00;101604.50;5467458;26;20002;-74
2024/04/13 01:17:43;;;;;;;6.60;2.70;;;;;;;12.91;100.00;101607.03;5466023;26;20005;-74
2024/04/13 01:20:09;;;;;;;5.28;2.55;;;;;;;12.80;100.00;101603.41;5434415;26;20002;-73
2024/04/13 01:22:37;;;;;;;4.00;2.40;;;;;;;12.78;100.00;101602.03;5437084;26;20001;-74
2024/04/13 01:25:03;;;;;;;8.00;2.63;;;;;;;12.81;100.00;101598.69;5435445;26;20001;-74
2024/04/13 01:27:29;;;;;;;3.90;2.50;;;;;;;12.71;100.00;101603.16;5406197;26;20050;-73
2024/04/13 01:29:55;;;;;;;6.38;2.95;;;;;;;12.72;100.00;101593.69;5466075;26;20415;-73
2024/04/13 01:32:20;;;;;;;4.82;2.20;;;;;;;12.69;100.00;101594.25;5465350;26;20038;-73
2024/04/13 01:34:47;;;;;;;4.05;2.30;;;;;;;12.64;100.00;101591.47;5519769;26;20002;-73
2024/04/13 01:37:12;;;;;;;4.00;2.38;;;;;;;12.64;100.00;101596.22;5483898;26;20013;-73
2024/04/13 01:39:38;;;;;;;6.85;2.38;;;;;;;12.57;100.00;101592.91;5436167;26;20046;-73
2024/04/13 01:42:05;;;;;;;6.72;2.25;;;;;;;12.58;100.00;101602.91;5435936;26;20049;-73
2024/04/13 01:44:30;;;;;;;3.88;2.25;;;;;;;12.53;100.00;101598.16;5466401;26;20342;-73
2024/04/13 01:46:58;;;;;;;5.10;2.50;;;;;;;12.51;100.00;101600.44;5405757;26;20020;-73
2024/04/13 01:49:23;;;;;;;4.30;2.10;;;;;;;12.52;100.00;101593.72;5528085;26;20012;-73
2024/04/13 01:51:49;;;;;;;4.97;2.30;;;;;;;12.47;100.00;101596.50;5528413;26;20030;-73
2024/04/13 01:54:15;;;;;;;3.22;2.38;;;;;;;12.42;100.00;101588.97;5435797;26;20001;-73
2024/04/13 01:56:41;;;;;;;4.30;2.28;;;;;;;12.42;100.00;101593.72;5528090;26;20838;-73
2024/04/13 01:59:06;;;;;;;5.15;2.53;;;;;;;12.41;100.00;101586.50;5434679;26;20017;-73
2024/04/13 02:01:32;;;;;;;4.28;2.42;;;;;;;12.38;100.00;101581.50;5435616;26;20006;-73
2024/04/13 02:03:57;;;;;;;5.20;2.10;;;;;;;12.36;100.00;101583.72;5434586;26;20006;-73
2024/04/13 02:06:22;;;;;;;6.15;2.80;;;;;;;12.33;100.00;101578.69;5496002;26;20069;-74
2024/04/13 02:08:48;;;;;;;3.00;2.10;;;;;;;12.32;100.00;101575.09;5465095;26;20017;-73
2024/04/13 02:11:14;;;;;;;6.22;2.40;;;;;;;12.29;100.00;101584.84;5435676;26;20013;-73
2024/04/13 02:13:39;;;;;;;5.07;2.40;;;;;;;12.27;100.00;101577.88;5435145;26;20438;-73
2024/04/13 02:16:05;;;;;;;3.33;2.15;;;;;;;12.23;100.00;101574.81;5429323;26;19999;-73
2024/04/13 02:18:31;;;;;;;7.30;2.08;;;;;;;12.23;100.00;101585.09;5517456;26;20005;-73
2024/04/13 02:20:56;;;;;;;2.95;1.88;;;;;;;12.23;100.00;101579.53;5512999;26;20006;-73
2024/04/13 02:23:22;;;;;;;3.55;2.00;;;;;;;12.20;100.00;101578.16;5527692;26;20342;-73
2024/04/13 02:25:49;;;;;;;3.75;2.03;;;;;;;12.19;100.00;101572.84;5494234;26;20708;-73
2024/04/13 02:28:15;;;;;;;2.92;1.90;;;;;;;12.17;100.00;101575.91;5465178;26;20342;-73
2024/04/13 02:30:41;;;;;;;4.50;2.08;;;;;;;12.12;100.00;101567.59;5435179;26;20046;-73
2024/04/13 02:33:07;;;;;;;3.58;1.90;;;;;;;12.14;100.00;101565.34;5464840;26;20001;-73
2024/04/13 02:35:33;;;;;;;3.47;1.67;;;;;;;12.05;100.00;101561.44;5495202;26;20009;-73
2024/04/13 02:37:59;;;;;;;3.50;1.80;;;;;;;12.10;100.00;101567.03;5464738;26;19998;-73
2024/04/13 02:40:24;;;;;;;4.68;2.22;;;;;;;12.05;100.00;101562.28;5464930;26;19997;-73
2024/04/13 02:42:50;;;;;;;3.22;2.00;;;;;;;12.06;100.00;101563.97;5434795;26;20350;-73
2024/04/13 02:45:17;;;;;;;3.83;2.00;;;;;;;12.03;100.00;101563.66;5494330;26;20009;-73
2024/04/13 02:47:43;;;;;;;3.00;2.20;;;;;;;12.02;100.00;101567.56;5464639;26;20038;-73
2024/04/13 02:50:09;;;;;;;4.30;2.25;;;;;;;12.04;100.00;101557.00;5481553;26;19994;-73
2024/04/13 02:52:36;;;;;;;3.85;2.20;;;;;;;11.97;100.00;101553.66;5494209;26;20004;-73
2024/04/13 02:55:04;;;;;;;3.72;2.00;;;;;;;11.97;100.00;101536.94;5479555;26;20048;-73
2024/04/13 02:57:29;;;;;;;4.90;2.60;;;;;;;11.94;100.00;101543.06;5458055;26;19999;-73
2024/04/13 02:59:56;;;;;;;4.85;2.70;;;;;;;12.02;100.00;101545.31;5445089;26;19998;-73
2024/04/13 03:02:23;;;;;;;4.70;2.20;;;;;;;11.97;100.00;101545.28;5516451;26;19998;-73
2024/04/13 03:04:52;;;;;;;5.25;2.47;;;;;;;11.90;100.00;101540.00;5446382;26;20002;-73
2024/04/13 03:07:18;;;;;;;3.13;2.08;;;;;;;11.87;100.00;101536.94;5517649;26;20491;-73
2024/04/13 03:09:44;;;;;;;4.97;2.67;;;;;;;11.88;100.00;101533.06;5434470;26;20012;-73
2024/04/13 03:12:09;;;;;;;6.28;3.00;;;;;;;11.86;100.00;101530.53;5434521;26;20517;-73
2024/04/13 03:14:36;;;;;;;4.30;2.30;;;;;;;11.87;100.00;101523.00;5494406;26;20005;-74
2024/04/13 03:17:02;;;;;;;4.93;2.45;;;;;;;11.79;100.00;101519.66;5458304;26;20002;-73
2024/04/13 03:19:27;;;;;;;6.25;2.45;;;;;;;11.77;100.00;101510.75;5453022;26;20016;-74
2024/04/13 03:21:53;;;;;;;3.92;2.28;;;;;;;11.76;100.00;101520.22;5463971;26;20023;-73
2024/04/13 03:24:18;;;;;;;4.40;2.15;;;;;;;11.73;100.00;101518.00;5463941;26;20013;-73
2024/04/13 03:26:46;;;;;;;6.68;2.58;;;;;;;11.71;100.00;101516.59;5494198;26;20404;-73
2024/04/13 03:29:12;;;;;;;4.57;2.20;;;;;;;11.70;100.00;101514.91;5404104;26;20012;-73
2024/04/13 03:31:37;;;;;;;5.32;2.38;;;;;;;11.70;100.00;101512.13;5463415;26;20001;-73
2024/04/13 03:34:04;;;;;;;6.20;2.72;;;;;;;11.67;100.00;101516.28;5463790;26;20629;-73
2024/04/13 03:36:31;;;;;;;7.53;2.45;;;;;;;11.69;100.00;101514.06;5436733;26;20002;-73
2024/04/13 03:38:56;;;;;;;3.70;2.05;;;;;;;11.66;100.00;101502.69;5437316;26;20009;-73
2024/04/13 03:41:22;;;;;;;5.95;2.40;;;;;;;11.63;100.00;101504.88;5467360;26;20009;-73
2024/04/13 03:43:48;;;;;;;4.20;2.05;;;;;;;11.60;100.00;101499.88;5463517;26;20002;-73
2024/04/13 03:46:13;;;;;;;6.40;2.35;;;;;;;11.56;100.00;101500.69;5437585;26;20012;-73
2024/04/13 03:48:41;;;;;;;5.60;2.78;;;;;;;11.53;100.00;101496.56;5466870;26;20034;-73
2024/04/13 03:51:10;;;;;;;3.35;2.00;;;;;;;11.52;100.00;101492.09;5438213;26;20468;-73
2024/04/13 03:53:36;;;;;;;5.53;2.40;;;;;;;11.50;100.00;101487.91;5464227;26;20009;-73
2024/04/13 03:56:02;;;;;;;5.82;2.63;;;;;;;11.56;100.00;101489.56;5437381;26;20524;-73
2024/04/13 03:58:28;;;;;;;4.35;2.30;;;;;;;11.49;100.00;101491.81;5436966;26;20013;-73
2024/04/13 04:00:54;;;;;;;4.90;2.35;;;;;;;11.48;100.00;101479.00;5437399;26;20002;-73
2024/04/13 04:03:19;;;;;;;5.57;2.33;;;;;;;11.45;100.00;101480.41;5466734;26;20006;-73
2024/04/13 04:05:48;;;;;;;6.82;2.80;;;;;;;11.44;100.00;101478.72;5467117;26;20001;-73
2024/04/13 04:08:14;;;;;;;5.38;2.38;;;;;;;11.41;100.00;101477.31;5432800;26;20450;-73
2024/04/13 04:10:40;;;;;;;5.57;2.45;;;;;;;11.41;100.00;101479.28;5467271;26;19998;-73
2024/04/13 04:13:06;;;;;;;3.92;2.20;;;;;;;11.42;100.00;101480.94;5437032;26;20443;-73
2024/04/13 04:15:34;;;;;;;5.05;2.40;;;;;;;11.36;100.00;101479.25;5436131;26;20016;-73
2024/04/13 04:18:00;;;;;;;3.42;2.40;;;;;;;11.37;100.00;101483.72;5467274;26;20478;-73
2024/04/13 04:20:26;;;;;;;3.38;2.40;;;;;;;11.36;100.00;101476.47;5436677;26;20345;-73
2024/04/13 04:22:52;;;;;;;3.88;2.25;;;;;;;11.31;100.00;101480.09;5467186;26;20037;-73
2024/04/13 04:25:21;;;;;;;4.35;2.28;;;;;;;11.30;100.00;101481.19;5466812;26;20013;-73
2024/04/13 04:27:46;;;;;;;4.50;2.13;;;;;;;11.28;100.00;101479.81;5466658;26;20341;-73
2024/04/13 04:30:12;;;;;;;4.30;2.40;;;;;;;11.23;100.00;101480.66;5437093;26;20009;-73
2024/04/13 04:32:38;;;;;;;7.78;2.25;;;;;;;11.23;100.00;101483.44;5436232;26;20028;-73
2024/04/13 04:35:06;;;;;;;4.95;2.42;;;;;;;11.30;100.00;101486.75;5435935;26;20005;-73
2024/04/13 04:37:32;;;;;;;4.32;2.28;;;;;;;11.20;100.00;101486.75;5407879;26;20013;-73
2024/04/13 04:39:57;;;;;;;4.70;2.20;;;;;;;11.20;100.00;101483.97;5466948;26;20024;-73
2024/04/13 04:42:24;;;;;;;7.28;2.35;;;;;;;11.17;100.00;101495.63;5464456;26;20037;-73
2024/04/13 04:44:50;;;;;;;4.85;2.33;;;;;;;11.18;100.00;101491.75;5481027;26;20021;-73
2024/04/13 04:47:15;;;;;;;3.45;2.15;;;;;;;11.12;100.00;101481.72;5434490;26;20006;-73
2024/04/13 04:49:41;;;;;;;4.35;2.30;;;;;;;11.06;100.00;101477.25;5466748;26;20442;-73
2024/04/13 04:52:06;;;;;;;4.20;2.10;;;;;;;11.06;100.00;101478.09;5436198;26;20323;-73
2024/04/13 04:54:32;;;;;;;5.28;2.50;;;;;;;11.10;100.00;101473.66;5436708;26;20494;-73
2024/04/13 04:56:57;;;;;;;3.72;2.45;;;;;;;11.04;100.00;101480.31;5465944;25;20051;-73
2024/04/13 04:59:23;;;;;;;4.75;2.22;;;;;;;11.03;100.00;101475.00;5430630;26;20017;-73
2024/04/13 05:01:48;;;;;;;5.22;2.20;;;;;;;11.02;100.00;101471.41;5457140;26;20542;-73
2024/04/13 05:04:14;;;;;;;4.45;2.28;;;;;;;11.01;100.00;101468.91;5459572;26;20002;-73
2024/04/13 05:06:39;;;;;;;3.53;2.40;;;;;;;10.99;100.00;101471.13;5436484;26;20021;-73
2024/04/13 05:09:06;;;;;;;5.65;2.47;;;;;;;10.91;100.00;101467.75;5436534;26;20006;-73
2024/04/13 05:11:33;;;;;;;5.07;2.47;;;;;;;10.89;100.00;101461.66;5466898;26;20012;-73
2024/04/13 05:13:58;;;;;;;3.83;2.53;;;;;;;10.90;100.00;101466.09;5466662;26;20016;-73
2024/04/13 05:16:24;;;;;;;5.30;2.45;;;;;;;10.86;100.00;101467.72;5496302;26;20001;-73
2024/04/13 05:18:49;;;;;;;4.40;2.80;;;;;;;10.86;100.00;101462.19;5435891;26;20001;-73
2024/04/13 05:21:15;;;;;;;4.50;2.20;;;;;;;10.84;100.00;101463.59;5435527;26;20529;-73
2024/04/13 05:23:40;;;;;;;5.85;2.63;;;;;;;10.80;100.00;101476.34;5466139;26;20091;-73
2024/04/13 05:26:06;;;;;;;3.97;2.60;;;;;;;10.83;100.00;101478.56;5406083;26;20006;-73
2024/04/13 05:28:33;;;;;;;4.70;2.72;;;;;;;10.78;100.00;101476.63;5429706;26;20054;-73
2024/04/13 05:31:00;;;;;;;5.15;2.67;;;;;;;10.74;100.00;101476.31;5517732;26;20035;-73
2024/04/13 05:33:29;;;;;;;4.15;2.30;;;;;;;10.76;100.00;101476.06;5466004;26;20081;-73
2024/04/13 05:35:57;;;;;;;6.53;2.55;;;;;;;10.74;100.00;101472.72;5496223;26;20009;-73
2024/04/13 05:38:23;;;;;;;4.28;2.72;;;;;;;10.73;100.00;101480.22;5465629;26;20005;-73
2024/04/13 05:40:52;;;;;;;3.78;2.53;;;;;;;10.69;100.00;101467.94;5435462;26;20002;-73
2024/04/13 05:43:19;;;;;;;3.90;2.33;;;;;;;10.71;100.00;101473.25;5429976;26;20024;-73
2024/04/13 05:45:45;;;;;;;2.85;2.22;;;;;;;10.67;100.00;101470.19;5463455;26;20374;-73
2024/04/13 05:48:10;;;;;;;4.90;2.67;;;;;;;10.74;100.00;101475.47;5406328;26;20005;-73
2024/04/13 05:50:36;;;;;;;4.88;2.50;;;;;;;10.73;100.00;101474.66;5465841;26;20001;-73
2024/04/13 05:53:01;;;;;;;4.30;2.33;;;;;;;10.74;100.00;101481.88;5465649;26;20009;-73
2024/04/13 05:55:27;;;;;;;5.03;2.45;;;;;;;10.78;100.00;101476.63;5434446;26;20005;-73
2024/04/13 05:57:52;;;;;;;4.43;2.40;;;;;;;10.79;100.00;101481.06;5428665;26;20016;-73
2024/04/13 06:00:18;;;;;;;3.78;2.50;;;;;;;10.79;100.00;101483.84;5518530;26;20029;-73
2024/04/13 06:02:43;;;;;;;3.67;2.25;;;;;;;10.82;100.00;101483.28;5465743;26;20002;-73
2024/04/13 06:05:09;;;;;;;5.13;2.40;;;;;;;10.84;100.00;101483.88;5527977;26;20035;-73
2024/04/13 06:07:34;;;;;;;5.82;2.83;;;;;;;10.85;100.00;101481.91;5459409;26;19998;-73
2024/04/13 06:10:00;;;;;;;4.97;2.70;;;;;;;10.88;100.00;101489.72;5465223;26;20450;-73
2024/04/13 06:12:26;;;;;;;4.60;2.42;;;;;;;10.91;100.00;101481.66;5465414;26;20009;-73
2024/04/13 06:14:51;;;;;;;4.65;2.50;;;;;;;10.95;100.00;101487.53;5435285;26;20077;-73
2024/04/13 06:17:16;;;;;;;4.45;2.72;;;;;;;10.99;100.00;101487.81;5465194;26;20017;-73
2024/04/13 06:19:43;;;;;;;5.57;3.00;;;;;;;11.07;100.00;101490.88;5435476;26;20009;-73
2024/04/13 06:22:09;;;;;;;4.88;2.80;;;;;;;11.11;100.00;101489.22;5465268;26;20327;-73
2024/04/13 06:24:35;;;;;;;4.80;2.60;;;;;;;11.21;100.00;101495.94;5435244;26;20013;-73
2024/04/13 06:27:01;;;;;;;6.82;3.08;;;;;;;11.19;100.00;101494.25;5439824;25;19997;-73
2024/04/13 06:29:26;;;;;;;4.57;3.03;;;;;;;11.26;100.00;101498.72;5480360;25;20073;-73
2024/04/13 06:31:52;;;;;;;4.15;2.50;;;;;;;11.31;100.00;101496.78;5435004;26;20350;-73
2024/04/13 06:34:17;;;;;;;6.70;3.00;;;;;;;11.40;100.00;101499.88;5434585;26;20074;-73
2024/04/13 06:36:43;;;;;;;4.18;3.20;;;;;;;11.49;100.00;101489.03;5475745;26;20011;-73
2024/04/13 06:39:12;;;;;;;5.72;2.92;;;;;;;11.59;100.00;101494.63;5464813;26;20005;-73
2024/04/13 06:41:37;;;;;;;7.03;3.45;;;;;;;11.71;100.00;101495.16;5464881;26;20023;-73
2024/04/13 06:44:03;;;;;;;4.43;3.45;;;;;;;11.81;100.00;101495.19;5404573;26;20375;-73
2024/04/13 06:46:30;;;;;;;7.07;4.10;;;;;;;11.90;100.00;101489.91;5495103;26;20006;-73
2024/04/13 06:48:56;;;;;;;7.07;4.28;;;;;;;12.03;100.00;101499.63;5428309;26;20005;-73
2024/04/13 06:51:21;;;;;;;5.72;3.80;;;;;;;12.10;100.00;101499.38;5434538;26;20016;-73
2024/04/13 06:53:46;;;;;;;6.15;3.67;;;;;;;12.20;100.00;101507.69;5434517;26;20085;-73
2024/04/13 06:56:13;;;;;;;6.65;4.32;;;;;;;12.32;100.00;101499.06;5464756;26;20334;-73
2024/04/13 06:58:39;;;;;;;9.48;4.28;;;;;;;12.41;100.00;101497.34;5405162;26;20050;-73
2024/04/13 07:01:04;;;;;;;7.03;4.55;;;;;;;12.53;100.00;101497.88;5464393;26;20454;-73
2024/04/13 07:03:30;;;;;;;8.65;3.92;;;;;;;12.64;100.00;101501.44;5491750;26;20018;-73
2024/04/13 07:05:56;;;;;;;6.82;4.15;;;;;;;12.78;100.00;101496.09;5464357;26;20019;-73
2024/04/13 07:08:23;;;;;;;5.93;3.95;;;;;;;12.93;100.00;101494.09;5431810;26;20017;-73
2024/04/13 07:10:48;;;;;;;8.10;3.97;;;;;;;13.05;100.00;101496.53;5465358;26;20402;-73
2024/04/13 07:13:14;;;;;;;7.93;4.07;;;;;;;13.24;100.00;101493.94;5437689;26;20133;-70
2024/04/13 07:15:39;;;;;;;5.03;3.30;;;;;;;13.38;100.00;101494.16;5436867;26;20005;-72
2024/04/13 07:18:05;;;;;;;8.27;3.55;;;;;;;13.53;100.00;101499.63;5465195;26;20009;-73
2024/04/13 07:20:31;;;;;;;6.53;3.90;;;;;;;13.73;100.00;101497.81;5461628;26;20034;-72
2024/04/13 07:22:56;;;;;;;8.73;4.32;;;;;;;13.86;100.00;101499.94;5461611;26;20012;-71
2024/04/13 07:25:22;;;;;;;7.55;4.03;;;;;;;14.00;100.00;101500.91;5461709;26;20469;-71
2024/04/13 07:27:47;;;;;;;10.30;4.72;;;;;;;14.14;100.00;101512.25;5461489;26;20003;-71
2024/04/13 07:30:13;;;;;;;6.20;4.35;;;;;;;14.32;100.00;101502.31;5402017;26;20030;-71
2024/04/13 07:32:38;;;;;;;7.78;4.30;;;;;;;14.46;100.00;101505.25;5430736;26;20006;-71
2024/04/13 07:35:04;;;;;;;7.80;4.30;;;;;;;14.61;100.00;101507.06;5461583;26;20020;-72
2024/04/13 07:37:30;;;;;;;5.82;4.28;;;;;;;14.76;100.00;101501.25;5430517;26;20443;-72
2024/04/13 07:39:55;;;;;;;8.43;4.10;;;;;;;14.88;100.00;101492.47;5461149;26;20020;-72
2024/04/13 07:42:21;;;;;;;7.57;4.20;;;;;;;15.06;100.00;101497.25;5431363;26;20006;-72
2024/04/13 07:44:46;;;;;;;10.65;4.47;;;;;;;15.19;100.00;101496.50;5431124;26;20042;-72
2024/04/13 07:47:11;;;;;;;8.48;5.07;;;;;;;15.36;100.00;101497.97;5430948;26;20403;-72
2024/04/13 07:49:37;;;;;;;9.23;6.00;;;;;;;15.51;100.00;101494.91;5461320;26;20002;-71
2024/04/13 07:52:03;;;;;;;12.00;6.00;;;;;;;15.67;100.00;101491.88;5430917;26;20078;-72
2024/04/13 07:54:28;;;;;;;13.32;6.25;;;;;;;15.83;100.00;101488.56;5431541;26;20081;-71
2024/04/13 07:56:54;;;;;;;10.45;5.22;;;;;;;16.04;100.00;101486.22;5430592;26;20016;-72
2024/04/13 07:59:19;;;;;;;9.15;5.03;;;;;;;16.27;100.00;101483.59;5431200;26;20002;-71
2024/04/13 08:01:44;;;;;;;9.95;5.72;;;;;;;16.52;100.00;101485.91;5456393;26;19999;-71
2024/04/13 08:04:10;;;;;;;13.13;7.70;;;;;;;16.71;100.00;101482.16;5424547;26;20006;-72
2024/04/13 08:06:36;;;;;;;18.23;9.70;;;;;;;16.96;100.00;101478.00;5450542;26;20017;-72
2024/04/13 08:09:02;;;;;;;19.83;12.25;;;;;;;17.15;100.00;101473.09;5461583;26;20070;-72
2024/04/13 08:11:28;;;;;;;27.25;15.15;;;;;;;17.40;100.00;101479.28;5431669;26;20014;-72
2024/04/13 08:13:53;;;;;;;41.55;22.98;;;;;;;17.56;100.00;101476.94;5461065;26;20005;-72
2024/04/13 08:16:19;;;;;;;33.22;19.38;;;;;;;17.77;100.00;101474.44;5460821;26;20002;-72
2024/04/13 08:18:44;;;;;;;50.45;27.85;;;;;;;18.00;100.00;101467.72;5491227;26;20078;-72
2024/04/13 08:21:10;;;;;;;41.58;23.35;;;;;;;18.19;100.00;101466.63;5460854;26;20002;-72
2024/04/13 08:23:36;;;;;;;42.22;24.08;;;;;;;18.37;100.00;101470.38;5459470;26;20006;-71
2024/04/13 08:26:03;;;;;;;41.08;24.13;;;;;;;18.59;100.00;101463.84;5431466;26;20396;-72
2024/04/13 08:28:28;;;;;;;42.00;23.77;;;;;;;18.74;100.00;101467.06;5460748;26;20021;-72
2024/04/13 08:30:55;;;;;;;42.83;24.30;;;;;;;18.92;100.00;101469.94;5430349;26;19998;-72
2024/04/13 08:33:21;;;;;;;37.38;21.08;;;;;;;19.06;100.00;101461.38;5460645;26;20002;-72
2024/04/13 08:35:47;;;;;;;37.95;22.35;;;;;;;19.30;100.00;101466.50;5430401;26;20547;-72
2024/04/13 08:38:14;;;;;;;32.53;18.98;;;;;;;19.42;100.00;101456.25;5460782;26;20010;-72
2024/04/13 08:40:40;;;;;;;27.35;17.70;;;;;;;19.59;100.00;101457.41;5400874;26;19998;-72
2024/04/13 08:43:05;;;;;;;23.80;15.07;;;;;;;19.80;100.00;101466.84;5484753;26;20494;-72
2024/04/13 08:45:31;;;;;;;22.25;12.65;;;;;;;19.93;100.00;101467.03;5452919;26;20033;-72
2024/04/13 08:47:56;;;;;;;17.95;11.60;;;;;;;20.08;100.00;101453.19;5431871;26;20003;-72
2024/04/13 08:50:23;;;;;;;19.17;11.68;;;;;;;20.26;100.00;101445.53;5482490;26;20024;-72
2024/04/13 08:52:49;;;;;;;14.68;9.20;;;;;;;20.47;100.00;101458.88;5430919;26;20006;-72
2024/04/13 08:55:15;;;;;;;14.68;7.97;;;;;;;20.65;100.00;101445.56;5460700;26;20021;-72
2024/04/13 08:57:40;;;;;;;13.85;8.00;;;;;;;20.88;100.00;101458.22;5454448;26;20002;-72
2024/04/13 09:00:13;;;;;;;12.23;6.95;;;;;;;21.03;100.00;101445.47;5479338;26;20009;-72
2024/04/13 09:02:38;;;;;;;12.40;6.50;;;;;;;21.23;100.00;101443.03;5492047;26;20006;-72
2024/04/13 09:05:04;;;;;;;11.50;6.07;;;;;;;21.38;100.00;101442.44;5457660;26;20013;-72
2024/04/13 09:07:33;;;;;;;8.98;5.45;;;;;;;21.55;100.00;101438.63;5460680;26;20572;-72
2024/04/13 09:09:59;;;;;;;9.05;4.80;;;;;;;21.67;100.00;101443.50;5430378;26;20013;-72
2024/04/13 09:12:25;;;;;;;9.02;5.13;;;;;;;21.82;100.00;101438.03;5430159;26;20020;-72
2024/04/13 09:14:50;;;;;;;6.03;4.50;;;;;;;21.95;100.00;101447.38;5460449;26;20006;-72
2024/04/13 09:17:16;;;;;;;7.20;3.85;;;;;;;22.08;100.00;101446.25;5490461;26;20006;-72
2024/04/13 09:19:44;;;;;;;7.82;4.22;;;;;;;22.22;100.00;101439.47;5463571;26;20038;-73
2024/04/13 09:22:09;;;;;;;11.32;3.70;;;;;;;22.39;100.00;101444.91;5437471;26;20541;-72
2024/04/13 09:24:41;;;;;;;6.05;3.22;;;;;;;22.52;100.00;101440.91;5436254;26;20001;-72
2024/04/13 09:27:15;;;;;;;9.57;3.97;;;;;;;22.67;100.00;101435.72;5466902;26;20013;-72
2024/04/13 09:29:40;;;;;;;9.25;3.72;;;;;;;22.85;100.00;101437.16;5465992;26;20017;-72
2024/04/13 09:32:07;;;;;;;5.40;3.30;;;;;;;22.94;100.00;101435.00;5465539;26;20006;-72
2024/04/13 09:34:34;;;;;;;6.80;3.20;;;;;;;23.07;100.00;101426.53;5463833;26;20012;-73
2024/04/13 09:37:11;;;;;;;5.90;2.63;;;;;;;23.21;100.00;101429.78;5464792;26;20005;-73
2024/04/13 09:39:37;;;;;;;7.70;2.60;;;;;;;23.31;100.00;101425.63;5436551;26;20015;-73
2024/04/13 09:42:09;;;;;;;4.57;2.47;;;;;;;23.38;100.00;101423.84;5435734;26;20001;-73
2024/04/13 09:44:34;;;;;;;5.88;2.47;;;;;;;23.51;97.59;101415.28;5451908;26;20515;-73
2024/04/13 09:47:00;;;;;;;6.38;3.33;;;;;;;23.39;87.76;101416.97;5486202;26;20017;-73
2024/04/13 09:49:25;;;;;;;4.88;3.83;;;;;;;23.24;85.82;101420.56;5465506;26;20020;-74
2024/04/13 09:51:51;;;;;;;8.20;3.20;;;;;;;23.25;87.09;101421.41;5435487;26;20001;-73
2024/04/13 09:54:17;;;;;;;5.53;3.25;;;;;;;23.39;89.25;101424.66;5496111;26;20001;-73
2024/04/13 09:56:48;;;;;;;6.18;3.00;;;;;;;23.56;91.73;101430.00;5405729;26;20323;-74
2024/04/13 09:59:17;;;;;;;4.20;1.97;;;;;;;23.73;95.68;101426.06;5413717;26;20411;-73
2024/04/13 10:01:43;;;;;;;7.65;2.47;;;;;;;23.96;97.25;101416.97;5431799;26;20584;-73
2024/04/13 10:04:08;;;;;;;3.20;2.13;;;;;;;24.17;96.70;101422.41;5434888;26;20009;-74
2024/04/13 10:06:34;;;;;;;6.35;2.38;;;;;;;24.30;94.51;101421.97;5464938;26;20001;-74
2024/04/13 10:09:00;;;;;;;6.85;2.33;;;;;;;24.48;91.44;101413.09;5465388;26;20031;-73
2024/04/13 10:11:26;;;;;;;5.97;2.28;;;;;;;24.65;91.65;101418.38;5465211;26;20745;-73
2024/04/13 10:13:51;;;;;;;7.70;2.85;;;;;;;24.78;90.86;101407.75;5435157;26;20001;-73
2024/04/13 10:16:17;;;;;;;4.80;2.30;;;;;;;24.94;88.05;101419.09;5434160;26;20033;-73
2024/04/13 10:18:43;;;;;;;5.13;2.03;;;;;;;25.06;88.02;101406.75;5465303;26;20005;-73
2024/04/13 10:21:14;;;;;;;7.15;2.72;;;;;;;24.84;80.46;101402.59;5435762;26;20004;-74
2024/04/13 10:23:40;;;;;;;6.88;2.50;;;;;;;24.92;83.38;101401.56;5467149;26;20010;-73
2024/04/13 10:26:06;;;;;;;6.40;2.60;;;;;;;25.02;82.41;101409.53;5465174;26;20029;-74
2024/04/13 10:28:31;;;;;;;5.13;2.40;;;;;;;25.15;84.43;101402.53;5464865;26;20001;-74
2024/04/13 10:30:56;;;;;;;5.47;2.30;;;;;;;25.27;85.42;101397.88;5464835;26;20005;-74
2024/04/13 10:33:23;;;;;;;5.05;2.35;;;;;;;25.47;86.80;101396.72;5465142;26;20002;-74
2024/04/13 10:35:56;;;;;;;5.82;2.35;;;;;;;25.63;86.35;101396.59;5464894;26;20077;-73
2024/04/13 10:38:22;;;;;;;;;;;;;;;25.81;87.43;101391.28;5494795;26;20010;-75
2024/04/13 10:40:48;;;;;;;5.00;2.90;;;;;;;25.56;77.64;101400.16;5463914;26;19923;-73
2024/04/13 10:43:20;;;;;;;4.07;2.38;;;;;;;25.76;82.30;101381.03;5428677;26;19998;-73
2024/04/13 10:46:12;;;;;;;6.60;2.40;;;;;;;25.97;83.42;101389.19;5485355;26;20018;-74
2024/04/13 10:48:41;;;;;;;7.38;2.35;;;;;;;26.06;83.62;101400.31;5450116;26;20050;-74
2024/04/13 10:51:07;;;;;;;3.85;2.30;;;;;;;26.20;84.20;101388.38;5466643;26;20001;-74
2024/04/13 10:53:32;;;;;;;5.32;2.10;;;;;;;26.31;84.51;101380.84;5464365;26;20069;-74
2024/04/13 10:55:58;;;;;;;6.40;2.38;;;;;;;26.43;84.99;101379.81;5463598;26;20001;-74
2024/04/13 10:58:31;;;;;;;3.58;1.60;;;;;;;26.52;79.42;101377.53;5488086;26;20012;-74
2024/04/13 11:00:57;;;;;;;3.25;1.45;;;;;;;26.64;78.60;101376.50;5495097;26;20016;-74
2024/04/13 11:03:27;;;;;;;4.28;1.77;;;;;;;26.74;77.18;101372.97;5463977;26;20005;-73
2024/04/13 11:05:53;;;;;;;5.25;1.60;;;;;;;26.83;75.52;101370.69;5436350;26;20002;-73
2024/04/13 11:08:20;;;;;;;3.55;1.42;;;;;;;26.91;76.48;101369.59;5434362;26;20016;-73
2024/04/13 11:10:50;;;;;;;5.47;1.23;;;;;;;27.03;74.49;101373.41;5465171;26;20209;-74
2024/04/13 11:13:16;;;;;;;3.28;1.35;;;;;;;27.12;74.83;101377.59;5435592;26;20008;-74